Nebo, North Carolina
Current Conditions -  °F | °C
As of 5:15 PM on Thursday 23 Oct 2014 (Local Time) from KFQD Reporting Station
Clear Clear  
Wind Chill: 70°   Ceiling: Unl
Heat Index: 70°   Visibility: 10mi
Dew Point: 36°   Wind: 7mph
Humidity: 28%   Direction: 20°NNE
Pressure: 30"   Gusts: NA
Location:  35.67°N, 81.9°W
Report Text: KFQD 232115Z AUTO 02006KT 10SM CLR 21/02 A3000 RMK AO2 T02120021
Loading
Personal Weather Stations






























Interactive Weather Map
Tropical Storm Tracking
New forecast layout! Learn more

10-Day Weather Forecast

Advertisements
Track Severe Weather on mobile